createdAt,value
2023-05-25T00:02:15.704Z,65.02
2023-05-25T00:04:43.490Z,65.67
2023-05-25T00:07:11.234Z,65.76
2023-05-25T00:09:39.054Z,65.97
2023-05-25T00:12:07.583Z,66.35
2023-05-25T00:14:35.273Z,66.19
2023-05-25T00:17:04.548Z,66.07
2023-05-25T00:19:32.762Z,65.84
2023-05-25T00:22:02.566Z,65.94
2023-05-25T00:24:33.029Z,66.18
2023-05-25T00:27:01.034Z,66.15
2023-05-25T00:29:29.417Z,66.12
2023-05-25T00:31:57.208Z,66.15
2023-05-25T00:34:24.886Z,66.39
2023-05-25T00:36:53.032Z,66.54
2023-05-25T00:39:21.262Z,66.94
2023-05-25T00:41:49.563Z,67.29
2023-05-25T00:44:22.166Z,67.61
2023-05-25T00:46:52.380Z,67.21
2023-05-25T00:49:21.600Z,67.05
2023-05-25T00:51:49.268Z,66.94
2023-05-25T00:54:17.545Z,66.97
2023-05-25T00:56:47.697Z,66.80
2023-05-25T00:59:18.833Z,66.89
2023-05-25T01:01:46.800Z,66.88
2023-05-25T01:04:15.728Z,66.49
2023-05-25T01:06:44.825Z,66.47
2023-05-25T01:09:12.810Z,66.39
2023-05-25T01:11:42.644Z,66.19
2023-05-25T01:14:10.600Z,66.04
2023-05-25T01:16:38.339Z,66.01
2023-05-25T01:19:06.141Z,65.85
2023-05-25T01:21:48.342Z,65.80
2023-05-25T01:24:54.380Z,65.79
2023-05-25T01:27:41.398Z,65.73
2023-05-25T01:30:11.129Z,65.80
2023-05-25T01:32:39.385Z,66.08
2023-05-25T01:35:08.227Z,66.12
2023-05-25T01:37:40.081Z,66.11
2023-05-25T01:40:09.029Z,66.31
2023-05-25T01:42:36.846Z,66.66
2023-05-25T01:45:06.756Z,66.85
2023-05-25T01:47:49.757Z,67.42
2023-05-25T01:50:26.825Z,67.30
2023-05-25T01:53:03.788Z,67.06
2023-05-25T01:55:34.996Z,67.13
2023-05-25T01:58:02.890Z,67.45
2023-05-25T02:00:33.522Z,67.51
2023-05-25T02:03:04.286Z,67.35
2023-05-25T02:05:32.047Z,67.59
2023-05-25T02:07:59.725Z,67.69
2023-05-25T02:10:31.490Z,67.79
2023-05-25T02:12:59.157Z,67.41
2023-05-25T02:15:31.833Z,67.61
2023-05-25T02:18:01.063Z,67.76
2023-05-25T02:20:31.080Z,67.88
2023-05-25T02:22:58.953Z,67.97
2023-05-25T02:25:27.026Z,67.81
2023-05-25T02:27:56.107Z,67.60
2023-05-25T02:30:24.133Z,67.65
2023-05-25T02:32:56.859Z,67.89
2023-05-25T02:35:24.729Z,67.81
2023-05-25T02:37:52.962Z,67.96
2023-05-25T02:40:20.729Z,68.03
2023-05-25T02:42:48.510Z,68.06
2023-05-25T02:45:17.185Z,67.74
2023-05-25T02:47:45.484Z,67.85
2023-05-25T02:50:13.618Z,68.00
2023-05-25T02:52:44.835Z,67.80
2023-05-25T02:55:13.762Z,68.05
2023-05-25T02:57:42.363Z,68.04
2023-05-25T03:00:12.602Z,67.64
2023-05-25T03:02:40.686Z,67.13
2023-05-25T03:05:09.103Z,66.53
2023-05-25T03:07:37.277Z,66.12
2023-05-25T03:10:05.474Z,66.05
2023-05-25T03:12:33.253Z,65.65
2023-05-25T03:15:01.340Z,65.21
2023-05-25T03:17:29.179Z,64.54
2023-05-25T03:19:57.614Z,64.73
2023-05-25T03:22:27.448Z,64.77
2023-05-25T03:24:55.227Z,64.57
2023-05-25T03:27:23.052Z,64.67
2023-05-25T03:29:51.762Z,64.67
2023-05-25T03:32:20.024Z,64.70
2023-05-25T03:34:47.821Z,64.79
2023-05-25T03:37:16.283Z,64.69
2023-05-25T03:39:44.480Z,64.59
2023-05-25T03:42:12.426Z,64.71
2023-05-25T03:44:41.321Z,64.50
2023-05-25T03:47:09.389Z,64.20
2023-05-25T03:49:37.157Z,64.18
2023-05-25T03:52:06.485Z,63.51
2023-05-25T03:54:34.458Z,63.27
2023-05-25T03:57:10.205Z,62.81
2023-05-25T03:59:38.021Z,60.86
2023-05-25T04:02:05.805Z,61.77
2023-05-25T04:04:33.972Z,61.30
2023-05-25T04:07:01.861Z,60.79
2023-05-25T04:09:31.217Z,60.39
2023-05-25T04:11:59.175Z,60.27
2023-05-25T04:14:27.085Z,60.62
2023-05-25T04:16:54.805Z,59.94
2023-05-25T04:19:23.000Z,59.38
2023-05-25T04:21:50.853Z,58.99
2023-05-25T04:24:18.685Z,59.09
2023-05-25T04:26:47.081Z,58.44
2023-05-25T04:29:15.500Z,59.08
2023-05-25T04:31:57.012Z,59.28
2023-05-25T04:34:36.766Z,59.00
2023-05-25T04:37:09.943Z,59.04
2023-05-25T04:39:39.566Z,59.20
2023-05-25T04:42:08.004Z,58.86
2023-05-25T04:44:36.406Z,58.75
2023-05-25T04:47:07.427Z,58.29
2023-05-25T04:49:35.595Z,57.69
2023-05-25T04:52:03.787Z,56.56
2023-05-25T04:54:32.837Z,55.59
2023-05-25T04:57:03.333Z,55.33
2023-05-25T04:59:32.301Z,54.59
2023-05-25T05:02:00.495Z,53.74
2023-05-25T05:04:28.375Z,54.10
2023-05-25T05:06:58.823Z,51.60
2023-05-25T05:09:29.242Z,51.43
2023-05-25T05:11:59.011Z,49.11
2023-05-25T05:14:26.720Z,49.15
2023-05-25T05:16:54.471Z,47.10
2023-05-25T05:19:23.243Z,48.50
2023-05-25T05:21:51.641Z,47.75
2023-05-25T05:24:19.685Z,45.26
2023-05-25T05:26:56.380Z,44.70
2023-05-25T05:29:29.916Z,43.34
2023-05-25T05:31:58.507Z,43.15
2023-05-25T05:34:27.053Z,42.51
2023-05-25T05:36:58.531Z,43.06
2023-05-25T05:39:28.470Z,42.38
2023-05-25T05:41:56.652Z,42.23
2023-05-25T05:44:27.847Z,43.19
2023-05-25T05:47:01.400Z,43.23
2023-05-25T05:49:31.043Z,42.91
2023-05-25T05:51:59.975Z,42.95
2023-05-25T05:54:28.485Z,42.81
2023-05-25T05:56:59.165Z,42.66
2023-05-25T05:59:27.015Z,42.91
2023-05-25T06:01:54.921Z,42.57
2023-05-25T06:04:25.847Z,41.88
2023-05-25T06:06:53.866Z,41.13
2023-05-25T06:09:21.757Z,40.18
2023-05-25T06:11:49.861Z,39.38
2023-05-25T06:14:18.891Z,38.84
2023-05-25T06:16:47.412Z,37.57
2023-05-25T06:19:15.341Z,36.43
2023-05-25T06:21:43.249Z,36.57
2023-05-25T06:24:11.097Z,35.46
2023-05-25T06:26:38.940Z,35.37
2023-05-25T06:29:07.261Z,34.54
2023-05-25T06:31:35.168Z,33.74
2023-05-25T06:34:03.174Z,33.12
2023-05-25T06:36:32.154Z,33.07
2023-05-25T06:39:00.453Z,31.19
2023-05-25T06:41:28.294Z,31.02
2023-05-25T06:43:56.405Z,30.75
2023-05-25T06:46:33.106Z,30.40
2023-05-25T06:49:01.736Z,29.51
2023-05-25T06:51:29.563Z,30.12
2023-05-25T06:53:57.388Z,30.36
2023-05-25T06:56:25.177Z,29.90
2023-05-25T06:58:52.943Z,30.30
2023-05-25T07:01:21.854Z,30.33
2023-05-25T07:03:49.651Z,30.42
2023-05-25T07:06:17.856Z,31.14
2023-05-25T07:08:46.005Z,31.94
2023-05-25T07:11:14.556Z,32.01
2023-05-25T07:13:42.713Z,31.03
2023-05-25T07:16:10.522Z,31.34
2023-05-25T07:18:42.263Z,32.28
2023-05-25T07:21:11.265Z,32.42
2023-05-25T07:23:41.268Z,33.13
2023-05-25T07:26:09.199Z,33.33
2023-05-25T07:28:37.139Z,33.11
2023-05-25T07:31:05.414Z,32.67
2023-05-25T07:33:33.617Z,31.87
2023-05-25T07:36:01.451Z,31.76
2023-05-25T07:38:29.350Z,31.63
2023-05-25T07:40:57.174Z,30.89
2023-05-25T07:43:25.142Z,31.03
2023-05-25T07:45:53.024Z,31.21
2023-05-25T07:48:21.194Z,31.19
2023-05-25T07:50:48.980Z,30.49
2023-05-25T07:53:16.869Z,30.08
2023-05-25T07:55:44.889Z,30.10
2023-05-25T07:58:12.944Z,30.04
2023-05-25T08:00:40.895Z,30.07
2023-05-25T08:03:09.089Z,29.08
2023-05-25T08:05:37.129Z,29.73
2023-05-25T08:08:04.997Z,28.98
2023-05-25T08:10:32.761Z,28.52
2023-05-25T08:13:00.552Z,28.95
2023-05-25T08:15:28.539Z,29.34
2023-05-25T08:17:56.949Z,30.42
2023-05-25T08:20:26.054Z,30.37
2023-05-25T08:22:54.839Z,30.43
2023-05-25T08:25:22.729Z,29.95
2023-05-25T08:27:50.451Z,29.90
2023-05-25T08:30:18.312Z,29.65
2023-05-25T08:32:46.574Z,30.21
2023-05-25T08:35:14.638Z,30.20
2023-05-25T08:37:43.710Z,29.18
2023-05-25T08:40:16.490Z,29.31
2023-05-25T08:42:47.838Z,28.97
2023-05-25T08:45:33.000Z,28.83
2023-05-25T08:48:02.046Z,28.46
2023-05-25T08:50:30.110Z,27.24
2023-05-25T08:52:58.193Z,26.19
2023-05-25T08:55:28.066Z,25.57
2023-05-25T08:57:57.952Z,25.23
2023-05-25T09:00:28.297Z,25.19
2023-05-25T09:03:16.240Z,25.78
2023-05-25T09:05:44.500Z,25.30
2023-05-25T09:08:12.338Z,25.60
2023-05-25T09:10:42.685Z,25.55
2023-05-25T09:13:21.292Z,26.28
2023-05-25T09:15:50.875Z,27.39
2023-05-25T09:18:18.787Z,27.85
2023-05-25T09:20:47.677Z,28.67
2023-05-25T09:23:16.487Z,28.36
2023-05-25T09:25:44.460Z,27.63
2023-05-25T09:30:43.045Z,27.61
2023-05-25T09:33:14.600Z,28.45
2023-05-25T09:35:42.315Z,29.43
2023-05-25T09:38:10.294Z,28.92
2023-05-25T09:40:38.295Z,27.76
2023-05-25T09:43:06.003Z,29.22
2023-05-25T09:45:34.666Z,28.78
2023-05-25T09:48:03.446Z,29.83
2023-05-25T09:50:32.868Z,30.16
2023-05-25T09:53:01.174Z,31.16
2023-05-25T09:55:44.092Z,29.99
2023-05-25T09:58:16.956Z,29.62
2023-05-25T10:00:46.539Z,28.47
2023-05-25T10:03:16.185Z,30.26
2023-05-25T10:05:43.985Z,30.19
2023-05-25T10:08:11.862Z,31.49
2023-05-25T10:10:42.688Z,33.57
2023-05-25T10:13:11.187Z,34.52
2023-05-25T10:15:39.438Z,34.28
2023-05-25T10:18:07.161Z,35.05
2023-05-25T10:20:35.285Z,36.27
2023-05-25T10:23:21.549Z,37.21
2023-05-25T10:25:49.773Z,38.36
2023-05-25T10:28:28.761Z,38.04
2023-05-25T10:30:57.599Z,38.57
2023-05-25T10:33:26.128Z,38.55
2023-05-25T10:36:08.621Z,38.20
2023-05-25T10:38:44.972Z,39.77
2023-05-25T10:41:12.887Z,41.42
2023-05-25T10:43:41.452Z,42.25
2023-05-25T10:46:09.882Z,42.64
2023-05-25T10:48:52.021Z,43.60
2023-05-25T10:51:21.017Z,44.38
2023-05-25T10:53:59.573Z,44.35
2023-05-25T10:56:27.502Z,44.22
2023-05-25T10:58:55.392Z,44.33
2023-05-25T11:01:23.674Z,44.20
2023-05-25T11:04:15.287Z,43.74
2023-05-25T11:06:46.636Z,44.04
2023-05-25T11:09:25.709Z,44.00
2023-05-25T11:11:55.771Z,43.90
2023-05-25T11:14:24.190Z,43.58
2023-05-25T11:17:14.376Z,44.25
2023-05-25T11:19:43.625Z,44.78
2023-05-25T11:22:21.501Z,44.70
2023-05-25T11:24:49.408Z,44.60
2023-05-25T11:27:25.525Z,44.38
2023-05-25T11:29:53.841Z,44.00
2023-05-25T11:32:23.037Z,43.98
2023-05-25T11:34:54.507Z,43.50
2023-05-25T11:37:25.117Z,43.20
2023-05-25T11:39:53.407Z,42.88
2023-05-25T11:42:22.630Z,42.34
2023-05-25T11:44:50.595Z,42.58
2023-05-25T11:47:23.336Z,43.40
2023-05-25T11:49:51.279Z,43.92
2023-05-25T11:52:20.521Z,44.56
2023-05-25T11:54:48.300Z,45.53
2023-05-25T11:57:25.377Z,45.14
2023-05-25T12:00:00.520Z,45.79
2023-05-25T12:02:28.333Z,46.35
2023-05-25T12:05:01.995Z,45.82
2023-05-25T12:07:30.926Z,45.63
2023-05-25T12:10:06.361Z,45.86
2023-05-25T12:13:04.886Z,45.44
2023-05-25T12:15:32.733Z,45.35
2023-05-25T12:18:00.655Z,45.38
2023-05-25T12:22:56.083Z,45.32
2023-05-25T12:25:24.955Z,45.72
2023-05-25T12:28:15.387Z,44.91
2023-05-25T12:30:43.416Z,44.32
2023-05-25T12:33:13.385Z,43.93
2023-05-25T12:35:49.293Z,43.66
2023-05-25T12:38:18.774Z,43.59
2023-05-25T12:40:47.014Z,43.18
2023-05-25T12:43:17.186Z,43.09
2023-05-25T12:45:45.440Z,42.61
2023-05-25T12:48:13.451Z,42.94
2023-05-25T12:50:57.298Z,41.91
2023-05-25T12:53:25.591Z,41.53
2023-05-25T12:56:06.893Z,41.68
2023-05-25T12:58:34.749Z,42.02
2023-05-25T13:01:02.642Z,41.96
2023-05-25T13:03:31.087Z,42.20
2023-05-25T13:06:02.743Z,42.07
2023-05-25T13:08:30.784Z,42.24
2023-05-25T13:10:58.688Z,42.15
2023-05-25T13:13:27.199Z,42.49
2023-05-25T13:15:55.201Z,42.18
2023-05-25T13:18:22.949Z,42.19
2023-05-25T13:20:53.289Z,41.93
2023-05-25T13:23:23.176Z,41.61
2023-05-25T13:25:50.953Z,41.82
2023-05-25T13:28:18.806Z,41.74
2023-05-25T13:30:46.813Z,41.67
2023-05-25T13:33:14.872Z,41.91
2023-05-25T13:35:58.142Z,41.77
2023-05-25T13:38:26.069Z,41.99
2023-05-25T13:40:53.887Z,42.38
2023-05-25T13:43:22.157Z,42.14
2023-05-25T13:45:50.111Z,41.76
2023-05-25T13:48:18.715Z,41.90
2023-05-25T13:50:46.751Z,41.92
2023-05-25T13:53:14.698Z,41.63
2023-05-25T13:55:42.516Z,41.79
2023-05-25T13:58:10.213Z,42.53
2023-05-25T14:00:37.885Z,42.87
2023-05-25T14:03:06.733Z,43.11
2023-05-25T14:05:34.525Z,43.24
2023-05-25T14:08:05.037Z,43.45
2023-05-25T14:10:32.832Z,43.15
2023-05-25T14:13:00.690Z,42.95
2023-05-25T14:15:28.415Z,43.38
2023-05-25T14:17:57.535Z,43.89
2023-05-25T14:20:26.597Z,44.09
2023-05-25T14:22:54.508Z,43.76
2023-05-25T14:25:22.174Z,45.00
2023-05-25T14:27:49.862Z,45.72
2023-05-25T14:30:17.758Z,46.06
2023-05-25T14:32:45.662Z,46.45
2023-05-25T14:35:13.565Z,46.73
2023-05-25T14:37:42.152Z,46.79
2023-05-25T14:40:11.057Z,46.08
2023-05-25T14:42:38.872Z,46.22
2023-05-25T14:45:10.683Z,46.06
2023-05-25T14:47:39.275Z,45.59
2023-05-25T14:50:07.404Z,46.02
2023-05-25T14:52:36.739Z,45.93
2023-05-25T14:55:04.593Z,46.39
2023-05-25T14:57:32.389Z,46.68
2023-05-25T15:00:00.320Z,46.57
2023-05-25T15:02:28.633Z,46.93
2023-05-25T15:04:56.538Z,47.39
2023-05-25T15:07:24.288Z,47.95
2023-05-25T15:09:52.037Z,48.69
2023-05-25T15:12:20.260Z,49.01
2023-05-25T15:14:48.078Z,49.37
2023-05-25T15:17:15.736Z,49.13
2023-05-25T15:19:43.408Z,49.42
2023-05-25T15:22:11.141Z,49.40
2023-05-25T15:24:38.901Z,48.50
2023-05-25T15:27:06.777Z,47.83
2023-05-25T15:29:34.398Z,47.49
2023-05-25T15:32:02.121Z,47.15
2023-05-25T15:34:30.046Z,47.21
2023-05-25T15:36:57.712Z,47.06
2023-05-25T15:39:25.469Z,47.98
2023-05-25T15:41:53.216Z,47.98
2023-05-25T15:44:21.538Z,47.43
2023-05-25T15:46:49.191Z,47.96
2023-05-25T15:49:16.877Z,48.17
2023-05-25T15:51:44.809Z,48.66
2023-05-25T15:54:14.713Z,48.38
2023-05-25T15:56:42.681Z,48.14
2023-05-25T15:59:12.631Z,48.69
2023-05-25T16:01:40.730Z,48.71
2023-05-25T16:04:08.718Z,48.67
2023-05-25T16:06:37.138Z,48.64
2023-05-25T16:09:04.878Z,48.42
2023-05-25T16:11:34.334Z,47.82
2023-05-25T16:14:02.214Z,47.47
2023-05-25T16:16:30.065Z,47.26
2023-05-25T16:18:57.822Z,47.29
2023-05-25T16:21:26.136Z,47.67
2023-05-25T16:23:53.932Z,47.98
2023-05-25T16:26:22.801Z,48.49
2023-05-25T16:28:50.498Z,49.46
2023-05-25T16:31:18.387Z,49.64
2023-05-25T16:33:46.389Z,50.09
2023-05-25T16:36:14.403Z,50.50
2023-05-25T16:38:42.132Z,51.52
2023-05-25T16:41:09.836Z,51.97
2023-05-25T16:43:37.540Z,51.77
2023-05-25T16:46:05.986Z,51.96
2023-05-25T16:48:33.817Z,52.37
2023-05-25T16:51:15.379Z,53.52
2023-05-25T16:53:43.941Z,54.10
2023-05-25T16:56:12.045Z,54.28
2023-05-25T16:58:40.029Z,55.41
2023-05-25T17:01:08.270Z,55.96
2023-05-25T17:03:37.123Z,55.27
2023-05-25T17:06:05.694Z,55.31
2023-05-25T17:08:33.717Z,55.05
2023-05-25T17:11:01.651Z,55.11
2023-05-25T17:13:29.575Z,55.01
2023-05-25T17:15:57.586Z,54.79
2023-05-25T17:18:27.035Z,54.61
2023-05-25T17:20:55.386Z,55.51
2023-05-25T17:23:23.228Z,55.38
2023-05-25T17:25:51.986Z,55.51
2023-05-25T17:28:19.879Z,55.78
2023-05-25T17:30:48.627Z,55.89
2023-05-25T17:33:16.768Z,55.90
2023-05-25T17:35:48.129Z,56.26
2023-05-25T17:38:16.212Z,56.52
2023-05-25T17:40:43.979Z,56.96
2023-05-25T17:43:11.900Z,57.16
2023-05-25T17:45:39.731Z,57.36
2023-05-25T17:48:07.665Z,58.10
2023-05-25T17:50:35.686Z,58.49
2023-05-25T17:53:04.447Z,58.05
2023-05-25T17:55:32.320Z,58.13
2023-05-25T17:58:00.962Z,58.29
2023-05-25T18:00:31.023Z,57.98
2023-05-25T18:02:59.063Z,58.09
2023-05-25T18:05:27.007Z,57.91
2023-05-25T18:07:54.851Z,57.82
2023-05-25T18:10:23.111Z,58.09
2023-05-25T18:12:52.479Z,57.98
2023-05-25T18:15:20.526Z,58.15
2023-05-25T18:17:48.433Z,58.64
2023-05-25T18:20:16.544Z,59.70
2023-05-25T18:22:44.424Z,60.32
2023-05-25T18:25:12.307Z,60.98
2023-05-25T18:27:40.549Z,61.40
2023-05-25T18:30:09.950Z,60.82
2023-05-25T18:32:37.927Z,60.97
2023-05-25T18:35:06.988Z,61.01
2023-05-25T18:37:36.057Z,61.23
2023-05-25T18:40:04.388Z,60.88
2023-05-25T18:42:32.253Z,60.47
2023-05-25T18:45:00.063Z,60.57
2023-05-25T18:47:27.940Z,60.36
2023-05-25T18:49:55.997Z,60.48
2023-05-25T18:52:23.864Z,60.09
2023-05-25T18:54:51.961Z,60.11
2023-05-25T18:57:20.033Z,59.70
2023-05-25T18:59:47.910Z,59.55
2023-05-25T19:02:15.808Z,59.98
2023-05-25T19:04:43.820Z,59.79
2023-05-25T19:07:12.361Z,59.48
2023-05-25T19:09:40.604Z,59.89
2023-05-25T19:12:09.077Z,59.65
2023-05-25T19:14:36.924Z,59.57
2023-05-25T19:17:04.833Z,59.74
2023-05-25T19:19:32.605Z,59.64
2023-05-25T19:22:00.571Z,59.69
2023-05-25T19:24:28.379Z,59.79
2023-05-25T19:26:56.242Z,59.90
2023-05-25T19:29:24.209Z,59.91
2023-05-25T19:31:52.403Z,59.71
2023-05-25T19:34:21.257Z,59.55
2023-05-25T19:36:59.748Z,59.82
2023-05-25T19:39:32.205Z,60.07
2023-05-25T19:42:00.167Z,60.07
2023-05-25T19:44:32.164Z,59.97
2023-05-25T19:47:01.556Z,59.95
2023-05-25T19:49:31.361Z,60.26
2023-05-25T19:51:59.767Z,60.16
2023-05-25T19:54:27.582Z,60.21
2023-05-25T19:56:55.377Z,60.25
2023-05-25T19:59:28.123Z,60.34
2023-05-25T20:01:57.044Z,60.93
2023-05-25T20:04:25.590Z,61.50
2023-05-25T20:06:53.943Z,61.60
2023-05-25T20:09:30.256Z,61.40
2023-05-25T20:11:58.817Z,61.37
2023-05-25T20:14:26.859Z,61.47
2023-05-25T20:16:56.222Z,61.96
2023-05-25T20:19:24.044Z,62.40
2023-05-25T20:21:52.264Z,62.86
2023-05-25T20:24:22.288Z,62.64
2023-05-25T20:26:50.366Z,63.06
2023-05-25T20:29:18.192Z,63.42
2023-05-25T20:31:46.039Z,62.76
2023-05-25T20:34:13.946Z,62.98
2023-05-25T20:36:41.755Z,63.20
2023-05-25T20:39:09.663Z,63.39
2023-05-25T20:41:37.465Z,63.89
2023-05-25T20:44:09.061Z,63.44
2023-05-25T20:46:37.266Z,63.37
2023-05-25T20:49:05.109Z,63.78
2023-05-25T20:51:33.014Z,64.46
2023-05-25T20:54:01.042Z,64.54
2023-05-25T20:56:29.209Z,64.36
2023-05-25T20:58:57.685Z,64.31
2023-05-25T21:01:25.687Z,64.35
2023-05-25T21:03:53.597Z,64.56
2023-05-25T21:06:22.918Z,64.50
2023-05-25T21:08:50.814Z,64.40
2023-05-25T21:11:18.438Z,64.81
2023-05-25T21:13:46.376Z,65.10
2023-05-25T21:16:14.168Z,65.22
2023-05-25T21:18:42.250Z,65.53
2023-05-25T21:21:11.457Z,65.70
2023-05-25T21:23:39.296Z,65.57
2023-05-25T21:26:07.245Z,65.55
2023-05-25T21:28:35.016Z,65.80
2023-05-25T21:31:03.406Z,66.11
2023-05-25T21:33:36.096Z,66.36
2023-05-25T21:36:04.156Z,66.43
2023-05-25T21:38:31.993Z,66.23
2023-05-25T21:40:59.941Z,66.11
2023-05-25T21:43:27.693Z,66.96
2023-05-25T21:45:55.512Z,67.35
2023-05-25T21:48:23.461Z,67.06
2023-05-25T21:50:51.996Z,66.83
2023-05-25T21:53:20.296Z,66.65
2023-05-25T21:55:48.216Z,66.37
2023-05-25T21:58:17.942Z,66.54
2023-05-25T22:00:45.880Z,66.56
2023-05-25T22:03:14.721Z,66.63
2023-05-25T22:05:43.033Z,66.79
2023-05-25T22:08:11.068Z,66.52
2023-05-25T22:10:39.003Z,66.55
2023-05-25T22:13:07.518Z,67.28
2023-05-25T22:15:35.602Z,67.37
2023-05-25T22:18:03.495Z,67.17
2023-05-25T22:20:31.367Z,66.94
2023-05-25T22:22:59.806Z,67.30
2023-05-25T22:25:27.706Z,67.62
2023-05-25T22:27:55.623Z,67.32
2023-05-25T22:30:23.437Z,67.08
2023-05-25T22:32:51.387Z,66.97
2023-05-25T22:35:19.214Z,67.11
2023-05-25T22:37:46.980Z,67.25
2023-05-25T22:40:15.294Z,67.23
2023-05-25T22:42:50.070Z,67.16
2023-05-25T22:45:18.562Z,67.53
2023-05-25T22:47:46.533Z,67.48
2023-05-25T22:50:14.385Z,67.61
2023-05-25T22:52:42.194Z,67.69
2023-05-25T22:55:10.288Z,67.60
2023-05-25T22:57:38.317Z,68.09
2023-05-25T23:00:07.195Z,68.09
2023-05-25T23:02:35.090Z,68.43
2023-05-25T23:05:03.050Z,68.53
2023-05-25T23:07:31.652Z,68.51
2023-05-25T23:09:59.627Z,68.68
2023-05-25T23:12:27.413Z,68.74
2023-05-25T23:14:56.881Z,68.58
2023-05-25T23:17:24.732Z,68.35
2023-05-25T23:19:53.887Z,68.21
2023-05-25T23:22:21.748Z,68.32
2023-05-25T23:24:49.554Z,68.73
2023-05-25T23:27:17.328Z,68.98
2023-05-25T23:29:45.130Z,69.77
2023-05-25T23:32:13.038Z,69.11
2023-05-25T23:34:40.868Z,69.02
2023-05-25T23:37:09.201Z,69.05
2023-05-25T23:39:36.982Z,69.38
2023-05-25T23:42:04.898Z,69.54
2023-05-25T23:44:32.684Z,69.50
2023-05-25T23:47:00.785Z,69.54
2023-05-25T23:49:28.636Z,69.42
2023-05-25T23:51:56.300Z,69.20
2023-05-25T23:54:24.170Z,69.47
2023-05-25T23:56:52.049Z,69.50
2023-05-25T23:59:19.802Z,69.78
